Latest Coastal Weather Observations for North Island

IDW60701

Issued at 9:43 pm WST Monday 4 May 2026 (issued every 10 minutes, with the page automatically refreshed every 10 minutes)

About coastal observations | Map of coastal stations | Coastal observations for WA | Marine services | Other Formats
Station Details ID: 008290 Name: NORTH ISLAND Lat: -28.30 Lon: 113.59 Height: 2.2 m
Data from the previous 72 hours. | See also: Recent months at North Island
Date/Time
WST
Wind Sea
Height
m
Swell Vis
km
Cloud Weather Temp
°C
Press
MSL
hPa
Rain since
9am
mm
Dir  Spd
kts
Gust
kts
Height
m
Period
s
Dir
04/09:30pm ESE 17 21 - - - - - - - 21.6 1021.6 0.0
04/09:00pm SE 18 22 - - - - - - - 21.7 1021.5 0.0
04/08:30pm SE 18 22 - - - - - - - 21.9 1021.4 0.0
04/08:00pm SE 18 22 - - - - - - - 21.7 1021.6 0.0
04/07:30pm SE 19 25 - - - - - - - 21.5 1021.3 0.0
04/07:00pm SE 19 23 - - - - - - - 21.7 1020.8 0.0
04/06:30pm SE 17 22 - - - - - - - 21.5 1020.5 0.0
04/06:00pm SE 19 23 - - - - - - - 21.6 1020.2 0.0
04/05:30pm SE 18 23 - - - - - - - 21.8 1019.9 0.0
04/05:00pm SE 18 23 - - - - - - - 22.8 1020.1 0.0
04/04:30pm SE 17 20 - - - - - - - 23.8 1020.1 0.0
04/04:00pm SE 15 19 - - - - - - - 23.8 1020.4 0.0
04/03:30pm SE 14 17 - - - - - - - 24.8 1020.5 0.0
04/03:00pm SE 14 17 - - - - - - - 24.7 1020.4 0.0
04/02:30pm SE 13 16 - - - - - - - 24.7 1020.5 0.0
04/02:00pm E 13 15 - - - - - - - 25.1 1020.6 0.0
04/01:30pm ENE 12 15 - - - - - - - 24.8 1020.8 0.0
04/01:00pm NE 13 15 - - - - - - - 24.4 1021.3 0.0
04/12:30pm NE 13 16 - - - - - - - 24.2 1021.5 0.0
04/12:00pm NE 13 17 - - - - - - - 23.9 1022.2 0.0
04/11:30am NE 14 18 - - - - - - - 23.3 1022.7 0.0
04/11:00am NE 15 19 - - - - - - - 23.0 1023.1 0.0
04/10:30am ENE 16 20 - - - - - - - 22.4 1023.4 0.0
04/10:00am ENE 16 21 - - - - - - - 22.1 1023.7 0.0
04/09:30am ENE 16 21 - - - - - - - 21.6 1023.8 0.0
04/09:00am E 16 21 - - - - - - - 21.0 1023.9 0.0
04/08:30am ENE 15 20 - - - - - - - 20.6 1023.9 0.0
04/08:00am ENE 15 19 - - - - - - - 19.8 1023.9 0.0
04/07:30am ENE 14 17 - - - - - - - 19.1 1023.6 0.0
04/07:00am E 16 22 - - - - - - - 18.4 1023.4 0.0
04/06:30am E 17 21 - - - - - - - 18.1 1023.3 0.0
04/06:00am E 17 21 - - - - - - - 18.4 1022.9 0.0
04/05:30am E 18 22 - - - - - - - 18.6 1022.4 0.0
04/05:00am E 18 22 - - - - - - - 18.7 1022.2 0.0
04/04:30am E 18 23 - - - - - - - 18.8 1022.0 0.0
04/04:00am E 19 25 - - - - - - - 19.0 1021.8 0.0
04/03:30am ESE 18 23 - - - - - - - 19.1 1021.9 0.0
04/03:00am ESE 19 23 - - - - - - - 19.2 1021.8 0.0
04/02:30am E 19 25 - - - - - - - 19.6 1022.0 0.0
04/02:00am ESE 18 22 - - - - - - - 19.9 1022.0 0.0
04/01:30am ESE 17 21 - - - - - - - 20.3 1022.1 0.0
04/01:00am ESE 18 21 - - - - - - - 20.5 1022.2 0.0
04/12:30am ESE 18 23 - - - - - - - 20.7 1022.4 0.0
04/12:04am E 19 24 - - - - - - - 20.8 1022.3 0.0
04/12:00am ENE 18 23 - - - - - - - 20.8 1022.3 0.0
 
Date/Time
WST
Wind Sea
Height
m
Swell Vis
km
Cloud Weather Temp
°C
Press
MSL
hPa
Rain since
9am
mm
Dir  Spd
kts
Gust
kts
Height
m
Period
s
Dir
03/11:30pm ENE 18 23 - - - - - - - 20.9 1022.6 0.0
03/11:00pm ENE 20 25 - - - - - - - 21.0 1022.7 0.0
03/10:30pm ENE 19 24 - - - - - - - 21.1 1022.5 0.0
03/10:00pm E 21 28 - - - - - - - 20.9 1022.3 0.0
03/09:30pm E 19 26 - - - - - - - 20.7 1022.3 0.0
03/09:00pm E 20 27 - - - - - - - 20.6 1022.2 0.0
03/08:30pm E 21 27 - - - - - - - 20.5 1021.9 0.0
03/08:00pm E 22 28 - - - - - - - 20.5 1021.5 0.0
03/07:30pm ESE 21 27 - - - - - - - 20.4 1021.2 0.0
03/07:00pm ESE 22 28 - - - - - - - 20.5 1020.9 0.0
03/06:30pm ESE 21 27 - - - - - - - 20.3 1020.6 0.0
03/06:00pm ESE 22 28 - - - - - - - 20.2 1020.4 0.0
03/05:30pm ESE 21 28 - - - - - - - 20.4 1020.2 0.0
03/05:00pm ESE 21 26 - - - - - - - 20.9 1020.1 0.0
03/04:30pm ESE 21 25 - - - - - - - 21.4 1020.2 0.0
03/04:00pm ESE 18 25 - - - - - - - 21.5 1020.2 0.0
03/03:30pm ESE 19 24 - - - - - - - 21.5 1020.3 0.0
03/03:00pm ESE 17 22 - - - - - - - 21.9 1020.6 0.0
03/02:30pm E 17 22 - - - - - - - 22.2 1020.7 0.0
03/02:00pm E 17 21 - - - - - - - 21.8 1021.0 0.0
03/01:30pm E 16 21 - - - - - - - 21.6 1021.3 0.0
03/01:00pm E 16 22 - - - - - - - 21.7 1021.7 0.0
03/12:30pm E 16 21 - - - - - - - 21.5 1022.1 0.0
03/12:00pm ENE 15 20 - - - - - - - 21.0 1022.5 0.0
03/11:30am ENE 16 20 - - - - - - - 20.6 1023.0 0.0
03/11:00am ENE 16 21 - - - - - - - 20.4 1023.4 0.0
03/10:30am E 16 20 - - - - - - - 20.7 1023.8 0.0
03/10:00am E 17 21 - - - - - - - 19.8 1024.1 0.0
03/09:30am E 17 22 - - - - - - - 19.2 1024.2 0.0
03/09:00am E 18 22 - - - - - - - 18.9 1024.1 0.0
03/08:30am E 16 21 - - - - - - - 18.4 1024.0 0.0
03/08:00am E 17 24 - - - - - - - 17.9 1023.7 0.0
03/07:30am E 19 24 - - - - - - - 17.3 1023.3 0.0
03/07:00am E 18 23 - - - - - - - 16.8 1023.2 0.0
03/06:30am E 21 25 - - - - - - - 17.0 1022.7 0.0
03/06:00am E 19 25 - - - - - - - 17.1 1022.6 0.0
03/05:30am E 19 25 - - - - - - - 17.3 1022.6 0.0
03/05:00am E 19 24 - - - - - - - 17.4 1022.4 0.0
03/04:30am E 20 25 - - - - - - - 17.4 1022.4 0.0
03/04:00am ESE 19 24 - - - - - - - 17.4 1022.4 0.0
03/03:30am ESE 20 27 - - - - - - - 17.6 1022.3 0.0
03/03:00am ESE 20 24 - - - - - - - 17.7 1022.4 0.0
03/02:30am ESE 20 27 - - - - - - - 17.9 1022.4 0.0
03/02:00am ESE 19 26 - - - - - - - 17.8 1022.5 0.0
03/01:30am ESE 21 25 - - - - - - - 18.0 1022.5 0.0
03/01:00am ESE 20 27 - - - - - - - 18.2 1022.3 0.0
03/12:30am ESE 20 25 - - - - - - - 18.2 1022.4 0.0
03/12:00am ESE 19 25 - - - - - - - 18.4 1022.5 0.0
 
Date/Time
WST
Wind Sea
Height
m
Swell Vis
km
Cloud Weather Temp
°C
Press
MSL
hPa
Rain since
9am
mm
Dir  Spd
kts
Gust
kts
Height
m
Period
s
Dir
02/11:30pm SE 19 24 - - - - - - - 18.5 1022.6 0.0
02/11:00pm ESE 19 24 - - - - - - - 18.8 1022.7 0.0
02/10:30pm SE 21 27 - - - - - - - 18.9 1022.7 0.0
02/10:00pm SE 22 28 - - - - - - - 18.9 1022.6 0.0
02/09:30pm SE 21 27 - - - - - - - 18.6 1022.7 0.0
02/09:00pm SE 21 27 - - - - - - - 18.7 1022.7 0.0
02/08:30pm SE 21 27 - - - - - - - 18.3 1022.6 0.0
02/08:00pm SE 20 26 - - - - - - - 18.3 1022.4 0.0
02/07:30pm SE 20 25 - - - - - - - 18.2 1022.2 0.0
02/07:00pm SE 20 26 - - - - - - - 17.9 1022.0 0.0
02/06:30pm SE 20 26 - - - - - - - 17.8 1021.8 0.0
02/06:00pm SE 20 25 - - - - - - - 17.7 1021.5 0.0
02/05:30pm SE 19 24 - - - - - - - 17.9 1021.3 0.0
02/05:00pm SE 19 25 - - - - - - - 18.1 1021.5 0.0
02/04:30pm SE 20 25 - - - - - - - 18.4 1021.5 0.0
02/04:00pm SE 19 24 - - - - - - - 18.6 1021.6 0.0
02/03:37pm SE 18 28 - - - - - - - 18.9 1021.6 0.0
02/03:30pm SE 19 24 - - - - - - - 19.0 1021.7 0.0
02/03:00pm SE 19 25 - - - - - - - 19.1 1021.9 0.0
02/02:30pm ESE 18 23 - - - - - - - 18.8 1022.2 0.0
02/02:00pm ESE 19 24 - - - - - - - 18.9 1022.5 0.0
02/01:30pm SE 20 25 - - - - - - - 19.0 1022.9 0.0
02/01:00pm ESE 19 24 - - - - - - - 19.1 1023.3 0.0
02/12:30pm ESE 18 25 - - - - - - - 18.7 1023.8 0.0
02/12:00pm SE 19 27 - - - - - - - 18.9 1024.2 0.0
02/11:30am ESE 17 24 - - - - - - - 18.8 1024.6 0.0
02/11:00am ESE 19 24 - - - - - - - 18.3 1024.8 0.0
02/10:30am ESE 17 22 - - - - - - - 17.6 1025.2 0.0
02/10:00am E 18 22 - - - - - - - 18.0 1025.2 0.0
02/09:30am E 17 23 - - - - - - - 17.1 1025.3 0.0
02/09:00am E 17 22 - - - - - - - 17.4 1025.2 0.0
02/08:30am E 17 23 - - - - - - - 17.0 1025.1 0.0
02/08:00am E 16 21 - - - - - - - 16.7 1024.7 0.0
02/07:30am E 17 23 - - - - - - - 16.1 1024.1 0.0
02/07:16am E 17 27 - - - - - - - 16.1 1023.7 0.0
02/07:00am E 16 21 - - - - - - - 15.8 1023.4 0.0
02/06:30am E 18 25 - - - - - - - 16.2 1023.0 0.0
02/06:00am E 20 25 - - - - - - - 16.3 1022.7 0.0
02/05:30am ESE 20 25 - - - - - - - 16.4 1022.3 0.0
02/05:00am ESE 23 31 - - - - - - - 17.3 1021.7 0.0
02/04:42am ESE 21 34 - - - - - - - 17.3 1021.6 0.0
02/04:30am SE 21 29 - - - - - - - 17.4 1021.6 0.0
02/04:19am SE 23 33 - - - - - - - 17.4 1021.5 0.0
02/04:00am SE 23 29 - - - - - - - 17.6 1021.5 0.0
02/03:30am SE 21 27 - - - - - - - 17.7 1021.7 0.0
02/03:11am ESE 20 30 - - - - - - - 17.8 1021.9 0.0
02/03:00am ESE 18 23 - - - - - - - 17.7 1022.2 0.0
02/02:31am ESE 18 28 - - - - - - - 17.7 1022.5 0.0
02/02:30am ESE 19 28 - - - - - - - 17.7 1022.4 0.0
02/02:25am ESE 18 28 - - - - - - - 17.7 1022.4 0.0
02/02:00am ESE 19 25 - - - - - - - 17.7 1022.5 0.0
02/01:30am ESE 18 25 - - - - - - - 17.5 1022.7 0.0
02/01:00am ESE 19 25 - - - - - - - 17.7 1022.7 0.0
02/12:30am ESE 20 26 - - - - - - - 17.8 1022.9 0.0
02/12:00am ESE 21 29 - - - - - - - 18.0 1022.7 0.0
 
Date/Time
WST
Wind Sea
Height
m
Swell Vis
km
Cloud Weather Temp
°C
Press
MSL
hPa
Rain since
9am
mm
Dir  Spd
kts
Gust
kts
Height
m
Period
s
Dir
01/11:30pm ESE 21 27 - - - - - - - 17.8 1022.8 0.0
01/11:00pm SE 22 28 - - - - - - - 18.3 1022.8 0.0
01/10:30pm SE 23 31 - - - - - - - 18.0 1022.8 0.0
01/10:00pm SE 20 28 - - - - - - - 18.5 1022.8 0.0

Other formats

Comma delimited format used in spreadsheet applications
http://www.bom.gov.au/fwo/IDW60701/IDW60701.94405.axf

JavaScript Object Notation format (JSON) in row-major order
http://www.bom.gov.au/fwo/IDW60701/IDW60701.94405.json

Data quality

Most of these data are generated automatically and are frequently updated. Quality checks on data are not normally performed. It is possible for incorrect values to appear. Refer to information at About Latest Weather Observations and please check the disclaimer before using these data.